sensor_id;sensor_type;location;lat;lon;timestamp;P1;durP1;ratioP1;P2;durP2;ratioP2
17361;SDS011;8798;51.938;4.348;2023-04-06T00:01:58;16.30;;;7.53;;
17361;SDS011;8798;51.938;4.348;2023-04-06T00:04:26;14.13;;;7.83;;
17361;SDS011;8798;51.938;4.348;2023-04-06T00:06:54;14.70;;;7.90;;
17361;SDS011;8798;51.938;4.348;2023-04-06T00:09:24;15.63;;;7.73;;
17361;SDS011;8798;51.938;4.348;2023-04-06T00:11:52;16.03;;;7.57;;
17361;SDS011;8798;51.938;4.348;2023-04-06T00:14:19;13.80;;;7.57;;
17361;SDS011;8798;51.938;4.348;2023-04-06T00:16:47;13.67;;;7.23;;
17361;SDS011;8798;51.938;4.348;2023-04-06T00:19:15;14.20;;;6.80;;
17361;SDS011;8798;51.938;4.348;2023-04-06T00:21:43;15.33;;;7.47;;
17361;SDS011;8798;51.938;4.348;2023-04-06T00:24:11;14.40;;;6.93;;
17361;SDS011;8798;51.938;4.348;2023-04-06T00:26:40;16.60;;;8.03;;
17361;SDS011;8798;51.938;4.348;2023-04-06T00:29:08;12.37;;;6.77;;
17361;SDS011;8798;51.938;4.348;2023-04-06T00:31:36;14.83;;;7.23;;
17361;SDS011;8798;51.938;4.348;2023-04-06T00:34:05;14.57;;;7.57;;
17361;SDS011;8798;51.938;4.348;2023-04-06T00:36:33;14.07;;;6.77;;
17361;SDS011;8798;51.938;4.348;2023-04-06T00:39:00;14.33;;;6.87;;
17361;SDS011;8798;51.938;4.348;2023-04-06T00:41:28;13.73;;;7.53;;
17361;SDS011;8798;51.938;4.348;2023-04-06T00:43:57;11.27;;;6.47;;
17361;SDS011;8798;51.938;4.348;2023-04-06T00:46:25;12.70;;;7.00;;
17361;SDS011;8798;51.938;4.348;2023-04-06T00:48:53;10.93;;;6.33;;
17361;SDS011;8798;51.938;4.348;2023-04-06T00:51:22;14.57;;;6.97;;
17361;SDS011;8798;51.938;4.348;2023-04-06T00:53:50;12.83;;;6.73;;
17361;SDS011;8798;51.938;4.348;2023-04-06T00:56:19;14.23;;;6.77;;
17361;SDS011;8798;51.938;4.348;2023-04-06T00:58:47;15.20;;;7.07;;
17361;SDS011;8798;51.938;4.348;2023-04-06T01:01:16;15.00;;;6.93;;
17361;SDS011;8798;51.938;4.348;2023-04-06T01:03:44;12.00;;;6.80;;
17361;SDS011;8798;51.938;4.348;2023-04-06T01:06:15;12.30;;;6.73;;
17361;SDS011;8798;51.938;4.348;2023-04-06T01:08:43;13.53;;;6.67;;
17361;SDS011;8798;51.938;4.348;2023-04-06T01:11:10;12.73;;;6.83;;
17361;SDS011;8798;51.938;4.348;2023-04-06T01:13:38;14.73;;;7.07;;
17361;SDS011;8798;51.938;4.348;2023-04-06T01:16:06;14.73;;;7.53;;
17361;SDS011;8798;51.938;4.348;2023-04-06T01:18:37;14.43;;;6.83;;
17361;SDS011;8798;51.938;4.348;2023-04-06T01:21:05;15.97;;;7.20;;
17361;SDS011;8798;51.938;4.348;2023-04-06T01:23:36;14.10;;;6.97;;
17361;SDS011;8798;51.938;4.348;2023-04-06T01:26:04;12.67;;;6.97;;
17361;SDS011;8798;51.938;4.348;2023-04-06T01:28:32;16.07;;;7.23;;
17361;SDS011;8798;51.938;4.348;2023-04-06T01:31:00;15.80;;;7.10;;
17361;SDS011;8798;51.938;4.348;2023-04-06T01:33:27;19.63;;;8.70;;
17361;SDS011;8798;51.938;4.348;2023-04-06T01:35:55;15.37;;;7.10;;
17361;SDS011;8798;51.938;4.348;2023-04-06T01:38:23;15.83;;;8.10;;
17361;SDS011;8798;51.938;4.348;2023-04-06T01:40:53;16.63;;;7.70;;
17361;SDS011;8798;51.938;4.348;2023-04-06T01:43:21;15.87;;;7.83;;
17361;SDS011;8798;51.938;4.348;2023-04-06T01:45:49;15.67;;;8.03;;
17361;SDS011;8798;51.938;4.348;2023-04-06T01:48:18;16.70;;;7.40;;
17361;SDS011;8798;51.938;4.348;2023-04-06T01:50:46;18.57;;;7.73;;
17361;SDS011;8798;51.938;4.348;2023-04-06T01:53:14;15.47;;;7.83;;
17361;SDS011;8798;51.938;4.348;2023-04-06T01:55:42;17.17;;;7.83;;
17361;SDS011;8798;51.938;4.348;2023-04-06T01:58:11;16.30;;;8.00;;
17361;SDS011;8798;51.938;4.348;2023-04-06T02:00:40;14.07;;;7.77;;
17361;SDS011;8798;51.938;4.348;2023-04-06T02:03:08;17.33;;;7.77;;
17361;SDS011;8798;51.938;4.348;2023-04-06T02:05:36;15.83;;;8.17;;
17361;SDS011;8798;51.938;4.348;2023-04-06T02:08:05;15.07;;;7.87;;
17361;SDS011;8798;51.938;4.348;2023-04-06T02:10:32;21.13;;;8.20;;
17361;SDS011;8798;51.938;4.348;2023-04-06T02:13:01;15.03;;;7.53;;
17361;SDS011;8798;51.938;4.348;2023-04-06T02:15:30;17.80;;;7.83;;
17361;SDS011;8798;51.938;4.348;2023-04-06T02:17:58;17.97;;;7.73;;
17361;SDS011;8798;51.938;4.348;2023-04-06T02:20:27;16.13;;;8.33;;
17361;SDS011;8798;51.938;4.348;2023-04-06T02:22:56;14.37;;;7.33;;
17361;SDS011;8798;51.938;4.348;2023-04-06T02:25:24;17.00;;;7.90;;
17361;SDS011;8798;51.938;4.348;2023-04-06T02:27:52;15.13;;;7.43;;
17361;SDS011;8798;51.938;4.348;2023-04-06T02:30:20;17.93;;;8.00;;
17361;SDS011;8798;51.938;4.348;2023-04-06T02:32:49;15.60;;;7.97;;
17361;SDS011;8798;51.938;4.348;2023-04-06T02:35:17;16.43;;;7.87;;
17361;SDS011;8798;51.938;4.348;2023-04-06T02:37:45;21.87;;;8.30;;
17361;SDS011;8798;51.938;4.348;2023-04-06T02:40:13;14.73;;;7.53;;
17361;SDS011;8798;51.938;4.348;2023-04-06T02:42:41;16.27;;;8.00;;
17361;SDS011;8798;51.938;4.348;2023-04-06T02:45:09;16.13;;;8.10;;
17361;SDS011;8798;51.938;4.348;2023-04-06T02:47:37;17.10;;;7.93;;
17361;SDS011;8798;51.938;4.348;2023-04-06T02:50:07;16.80;;;7.90;;
17361;SDS011;8798;51.938;4.348;2023-04-06T02:52:35;14.43;;;7.30;;
17361;SDS011;8798;51.938;4.348;2023-04-06T02:55:03;15.70;;;8.37;;
17361;SDS011;8798;51.938;4.348;2023-04-06T02:57:33;14.83;;;7.80;;
17361;SDS011;8798;51.938;4.348;2023-04-06T03:00:02;17.07;;;7.87;;
17361;SDS011;8798;51.938;4.348;2023-04-06T03:02:30;15.50;;;8.33;;
17361;SDS011;8798;51.938;4.348;2023-04-06T03:04:58;17.03;;;8.10;;
17361;SDS011;8798;51.938;4.348;2023-04-06T03:07:27;15.20;;;7.93;;
17361;SDS011;8798;51.938;4.348;2023-04-06T03:09:55;19.53;;;9.07;;
17361;SDS011;8798;51.938;4.348;2023-04-06T03:12:23;15.97;;;8.23;;
17361;SDS011;8798;51.938;4.348;2023-04-06T03:14:51;15.40;;;8.23;;
17361;SDS011;8798;51.938;4.348;2023-04-06T03:17:19;15.50;;;7.17;;
17361;SDS011;8798;51.938;4.348;2023-04-06T03:19:47;18.53;;;8.63;;
17361;SDS011;8798;51.938;4.348;2023-04-06T03:22:14;19.37;;;8.30;;
17361;SDS011;8798;51.938;4.348;2023-04-06T03:24:43;17.57;;;8.33;;
17361;SDS011;8798;51.938;4.348;2023-04-06T03:27:11;17.00;;;8.37;;
17361;SDS011;8798;51.938;4.348;2023-04-06T03:29:39;19.13;;;9.57;;
17361;SDS011;8798;51.938;4.348;2023-04-06T03:32:07;17.23;;;8.97;;
17361;SDS011;8798;51.938;4.348;2023-04-06T03:34:36;20.60;;;8.80;;
17361;SDS011;8798;51.938;4.348;2023-04-06T03:37:05;15.03;;;8.00;;
17361;SDS011;8798;51.938;4.348;2023-04-06T03:39:36;15.80;;;8.57;;
17361;SDS011;8798;51.938;4.348;2023-04-06T03:42:05;15.30;;;8.40;;
17361;SDS011;8798;51.938;4.348;2023-04-06T03:44:33;16.90;;;8.53;;
17361;SDS011;8798;51.938;4.348;2023-04-06T03:47:01;17.57;;;8.90;;
17361;SDS011;8798;51.938;4.348;2023-04-06T03:49:29;19.23;;;8.87;;
17361;SDS011;8798;51.938;4.348;2023-04-06T03:51:57;17.90;;;8.20;;
17361;SDS011;8798;51.938;4.348;2023-04-06T03:54:24;17.90;;;8.57;;
17361;SDS011;8798;51.938;4.348;2023-04-06T03:56:52;18.03;;;8.40;;
17361;SDS011;8798;51.938;4.348;2023-04-06T03:59:21;18.60;;;8.63;;
17361;SDS011;8798;51.938;4.348;2023-04-06T04:01:49;21.10;;;9.30;;
17361;SDS011;8798;51.938;4.348;2023-04-06T04:04:17;18.90;;;9.00;;
17361;SDS011;8798;51.938;4.348;2023-04-06T04:06:45;20.90;;;9.27;;
17361;SDS011;8798;51.938;4.348;2023-04-06T04:09:13;19.93;;;9.50;;
17361;SDS011;8798;51.938;4.348;2023-04-06T04:11:41;19.67;;;8.97;;
17361;SDS011;8798;51.938;4.348;2023-04-06T04:14:08;18.30;;;8.67;;
17361;SDS011;8798;51.938;4.348;2023-04-06T04:16:38;18.57;;;9.73;;
17361;SDS011;8798;51.938;4.348;2023-04-06T04:19:07;22.03;;;9.43;;
17361;SDS011;8798;51.938;4.348;2023-04-06T04:21:41;21.43;;;10.53;;
17361;SDS011;8798;51.938;4.348;2023-04-06T04:24:10;20.80;;;10.13;;
17361;SDS011;8798;51.938;4.348;2023-04-06T04:26:38;21.53;;;10.77;;
17361;SDS011;8798;51.938;4.348;2023-04-06T04:29:06;24.23;;;10.53;;
17361;SDS011;8798;51.938;4.348;2023-04-06T04:31:35;22.83;;;10.63;;
17361;SDS011;8798;51.938;4.348;2023-04-06T04:34:04;24.63;;;10.60;;
17361;SDS011;8798;51.938;4.348;2023-04-06T04:36:33;22.27;;;11.17;;
17361;SDS011;8798;51.938;4.348;2023-04-06T04:39:01;23.80;;;11.23;;
17361;SDS011;8798;51.938;4.348;2023-04-06T04:41:29;22.73;;;10.47;;
17361;SDS011;8798;51.938;4.348;2023-04-06T04:43:57;27.23;;;11.50;;
17361;SDS011;8798;51.938;4.348;2023-04-06T04:46:25;23.67;;;11.17;;
17361;SDS011;8798;51.938;4.348;2023-04-06T04:48:52;25.33;;;11.73;;
17361;SDS011;8798;51.938;4.348;2023-04-06T04:51:22;28.20;;;12.63;;
17361;SDS011;8798;51.938;4.348;2023-04-06T04:53:50;23.93;;;11.27;;
17361;SDS011;8798;51.938;4.348;2023-04-06T04:56:18;24.53;;;12.33;;
17361;SDS011;8798;51.938;4.348;2023-04-06T04:58:46;25.17;;;11.53;;
17361;SDS011;8798;51.938;4.348;2023-04-06T05:01:14;24.83;;;11.90;;
17361;SDS011;8798;51.938;4.348;2023-04-06T05:03:42;22.47;;;11.47;;
17361;SDS011;8798;51.938;4.348;2023-04-06T05:06:10;22.03;;;11.37;;
17361;SDS011;8798;51.938;4.348;2023-04-06T05:08:40;26.97;;;12.00;;
17361;SDS011;8798;51.938;4.348;2023-04-06T05:11:08;30.43;;;12.27;;
17361;SDS011;8798;51.938;4.348;2023-04-06T05:13:36;27.00;;;11.93;;
17361;SDS011;8798;51.938;4.348;2023-04-06T05:16:04;27.60;;;13.10;;
17361;SDS011;8798;51.938;4.348;2023-04-06T05:18:32;29.90;;;12.03;;
17361;SDS011;8798;51.938;4.348;2023-04-06T05:21:00;32.73;;;13.13;;
17361;SDS011;8798;51.938;4.348;2023-04-06T05:23:28;28.80;;;13.57;;
17361;SDS011;8798;51.938;4.348;2023-04-06T05:25:57;30.93;;;13.33;;
17361;SDS011;8798;51.938;4.348;2023-04-06T05:28:25;33.80;;;14.07;;
17361;SDS011;8798;51.938;4.348;2023-04-06T05:30:53;39.07;;;14.20;;
17361;SDS011;8798;51.938;4.348;2023-04-06T05:33:21;33.57;;;14.13;;
17361;SDS011;8798;51.938;4.348;2023-04-06T05:35:51;34.43;;;13.43;;
17361;SDS011;8798;51.938;4.348;2023-04-06T05:38:19;32.80;;;13.60;;
17361;SDS011;8798;51.938;4.348;2023-04-06T05:40:47;28.47;;;13.40;;
17361;SDS011;8798;51.938;4.348;2023-04-06T05:43:16;30.27;;;13.20;;
17361;SDS011;8798;51.938;4.348;2023-04-06T05:45:48;31.07;;;14.10;;
17361;SDS011;8798;51.938;4.348;2023-04-06T05:48:16;29.07;;;13.47;;
17361;SDS011;8798;51.938;4.348;2023-04-06T05:50:47;26.73;;;12.77;;
17361;SDS011;8798;51.938;4.348;2023-04-06T05:53:15;29.73;;;13.77;;
17361;SDS011;8798;51.938;4.348;2023-04-06T05:55:43;32.33;;;13.27;;
17361;SDS011;8798;51.938;4.348;2023-04-06T05:58:11;27.47;;;12.93;;
17361;SDS011;8798;51.938;4.348;2023-04-06T06:00:40;29.67;;;12.60;;
17361;SDS011;8798;51.938;4.348;2023-04-06T06:03:09;27.20;;;12.83;;
17361;SDS011;8798;51.938;4.348;2023-04-06T06:05:37;26.77;;;13.43;;
17361;SDS011;8798;51.938;4.348;2023-04-06T06:08:05;26.17;;;13.07;;
17361;SDS011;8798;51.938;4.348;2023-04-06T06:10:32;29.93;;;13.27;;
17361;SDS011;8798;51.938;4.348;2023-04-06T06:13:00;28.17;;;12.43;;
17361;SDS011;8798;51.938;4.348;2023-04-06T06:15:28;25.10;;;12.00;;
17361;SDS011;8798;51.938;4.348;2023-04-06T06:17:57;29.37;;;13.07;;
17361;SDS011;8798;51.938;4.348;2023-04-06T06:20:25;29.30;;;13.57;;
17361;SDS011;8798;51.938;4.348;2023-04-06T06:22:53;27.23;;;12.87;;
17361;SDS011;8798;51.938;4.348;2023-04-06T06:25:22;30.57;;;13.77;;
17361;SDS011;8798;51.938;4.348;2023-04-06T06:27:50;27.10;;;13.00;;
17361;SDS011;8798;51.938;4.348;2023-04-06T06:30:18;28.00;;;12.73;;
17361;SDS011;8798;51.938;4.348;2023-04-06T06:32:49;32.27;;;12.93;;
17361;SDS011;8798;51.938;4.348;2023-04-06T06:35:19;31.97;;;12.60;;
17361;SDS011;8798;51.938;4.348;2023-04-06T06:37:47;31.60;;;12.80;;
17361;SDS011;8798;51.938;4.348;2023-04-06T06:40:14;29.37;;;13.50;;
17361;SDS011;8798;51.938;4.348;2023-04-06T06:42:44;27.93;;;13.70;;
17361;SDS011;8798;51.938;4.348;2023-04-06T06:45:12;27.23;;;13.57;;
17361;SDS011;8798;51.938;4.348;2023-04-06T06:47:39;32.40;;;13.40;;
17361;SDS011;8798;51.938;4.348;2023-04-06T06:50:08;27.97;;;12.97;;
17361;SDS011;8798;51.938;4.348;2023-04-06T06:52:37;26.33;;;13.50;;
17361;SDS011;8798;51.938;4.348;2023-04-06T06:55:06;25.57;;;13.07;;
17361;SDS011;8798;51.938;4.348;2023-04-06T06:57:35;28.37;;;12.73;;
17361;SDS011;8798;51.938;4.348;2023-04-06T07:00:03;24.70;;;12.53;;
17361;SDS011;8798;51.938;4.348;2023-04-06T07:02:33;22.47;;;11.37;;
17361;SDS011;8798;51.938;4.348;2023-04-06T07:05:02;21.27;;;10.80;;
17361;SDS011;8798;51.938;4.348;2023-04-06T07:07:51;23.00;;;11.43;;
17361;SDS011;8798;51.938;4.348;2023-04-06T07:10:19;20.63;;;10.70;;
17361;SDS011;8798;51.938;4.348;2023-04-06T07:12:47;19.37;;;9.93;;
17361;SDS011;8798;51.938;4.348;2023-04-06T07:15:16;17.20;;;9.50;;
17361;SDS011;8798;51.938;4.348;2023-04-06T07:17:44;23.50;;;9.53;;
17361;SDS011;8798;51.938;4.348;2023-04-06T07:20:12;18.93;;;9.47;;
17361;SDS011;8798;51.938;4.348;2023-04-06T07:22:42;18.60;;;9.60;;
17361;SDS011;8798;51.938;4.348;2023-04-06T07:25:12;20.20;;;9.30;;
17361;SDS011;8798;51.938;4.348;2023-04-06T07:27:40;17.77;;;8.87;;
17361;SDS011;8798;51.938;4.348;2023-04-06T07:30:08;20.53;;;9.27;;
17361;SDS011;8798;51.938;4.348;2023-04-06T07:32:36;20.03;;;10.43;;
17361;SDS011;8798;51.938;4.348;2023-04-06T07:35:04;22.30;;;9.20;;
17361;SDS011;8798;51.938;4.348;2023-04-06T07:37:32;20.73;;;9.97;;
17361;SDS011;8798;51.938;4.348;2023-04-06T07:40:00;18.30;;;9.63;;
17361;SDS011;8798;51.938;4.348;2023-04-06T07:42:31;19.40;;;9.87;;
17361;SDS011;8798;51.938;4.348;2023-04-06T07:44:59;22.37;;;9.40;;
17361;SDS011;8798;51.938;4.348;2023-04-06T07:47:27;18.60;;;9.47;;
17361;SDS011;8798;51.938;4.348;2023-04-06T07:49:55;20.93;;;9.63;;
17361;SDS011;8798;51.938;4.348;2023-04-06T07:52:23;19.90;;;9.83;;
17361;SDS011;8798;51.938;4.348;2023-04-06T07:54:51;18.80;;;10.10;;
17361;SDS011;8798;51.938;4.348;2023-04-06T07:57:19;20.30;;;10.23;;
17361;SDS011;8798;51.938;4.348;2023-04-06T07:59:48;20.60;;;10.00;;
17361;SDS011;8798;51.938;4.348;2023-04-06T08:02:16;19.43;;;9.77;;
17361;SDS011;8798;51.938;4.348;2023-04-06T08:04:44;18.93;;;10.17;;
17361;SDS011;8798;51.938;4.348;2023-04-06T08:07:12;20.23;;;9.40;;
17361;SDS011;8798;51.938;4.348;2023-04-06T08:09:39;19.40;;;9.87;;
17361;SDS011;8798;51.938;4.348;2023-04-06T08:12:07;19.00;;;9.77;;
17361;SDS011;8798;51.938;4.348;2023-04-06T08:14:35;16.47;;;8.80;;
17361;SDS011;8798;51.938;4.348;2023-04-06T08:17:04;14.77;;;8.33;;
17361;SDS011;8798;51.938;4.348;2023-04-06T08:19:32;18.50;;;8.63;;
17361;SDS011;8798;51.938;4.348;2023-04-06T08:22:00;15.37;;;8.00;;
17361;SDS011;8798;51.938;4.348;2023-04-06T08:24:28;18.17;;;7.77;;
17361;SDS011;8798;51.938;4.348;2023-04-06T08:26:58;16.40;;;7.17;;
17361;SDS011;8798;51.938;4.348;2023-04-06T08:29:26;12.63;;;6.07;;
17361;SDS011;8798;51.938;4.348;2023-04-06T08:31:54;13.83;;;5.47;;
17361;SDS011;8798;51.938;4.348;2023-04-06T08:34:24;12.37;;;5.10;;
17361;SDS011;8798;51.938;4.348;2023-04-06T08:36:51;9.80;;;4.63;;
17361;SDS011;8798;51.938;4.348;2023-04-06T08:39:19;9.60;;;4.80;;
17361;SDS011;8798;51.938;4.348;2023-04-06T08:41:51;10.57;;;4.33;;
17361;SDS011;8798;51.938;4.348;2023-04-06T08:44:23;8.47;;;3.90;;
17361;SDS011;8798;51.938;4.348;2023-04-06T08:46:51;7.37;;;3.60;;
17361;SDS011;8798;51.938;4.348;2023-04-06T08:49:20;5.97;;;3.23;;
17361;SDS011;8798;51.938;4.348;2023-04-06T08:51:50;5.50;;;2.83;;
17361;SDS011;8798;51.938;4.348;2023-04-06T08:54:19;6.53;;;3.57;;
17361;SDS011;8798;51.938;4.348;2023-04-06T08:56:47;7.90;;;3.13;;
17361;SDS011;8798;51.938;4.348;2023-04-06T08:59:15;7.53;;;3.60;;
17361;SDS011;8798;51.938;4.348;2023-04-06T09:01:44;6.37;;;3.53;;
17361;SDS011;8798;51.938;4.348;2023-04-06T09:04:13;7.07;;;3.63;;
17361;SDS011;8798;51.938;4.348;2023-04-06T09:06:42;7.53;;;3.63;;
17361;SDS011;8798;51.938;4.348;2023-04-06T09:09:11;6.77;;;3.60;;
17361;SDS011;8798;51.938;4.348;2023-04-06T09:11:43;6.23;;;3.43;;
17361;SDS011;8798;51.938;4.348;2023-04-06T09:14:13;9.47;;;3.50;;
17361;SDS011;8798;51.938;4.348;2023-04-06T09:16:45;7.07;;;3.70;;
17361;SDS011;8798;51.938;4.348;2023-04-06T09:19:13;8.17;;;3.47;;
17361;SDS011;8798;51.938;4.348;2023-04-06T09:21:41;9.37;;;4.17;;
17361;SDS011;8798;51.938;4.348;2023-04-06T09:24:09;7.93;;;4.07;;
17361;SDS011;8798;51.938;4.348;2023-04-06T09:26:47;6.83;;;4.33;;
17361;SDS011;8798;51.938;4.348;2023-04-06T09:29:22;9.10;;;4.20;;
17361;SDS011;8798;51.938;4.348;2023-04-06T09:31:52;9.20;;;4.33;;
17361;SDS011;8798;51.938;4.348;2023-04-06T09:34:28;11.43;;;4.73;;
17361;SDS011;8798;51.938;4.348;2023-04-06T09:36:56;8.60;;;4.57;;
17361;SDS011;8798;51.938;4.348;2023-04-06T09:39:24;9.33;;;4.80;;
17361;SDS011;8798;51.938;4.348;2023-04-06T09:41:54;10.50;;;4.97;;
17361;SDS011;8798;51.938;4.348;2023-04-06T09:44:22;7.70;;;4.87;;
17361;SDS011;8798;51.938;4.348;2023-04-06T09:46:51;7.60;;;4.33;;
17361;SDS011;8798;51.938;4.348;2023-04-06T09:49:27;8.43;;;4.50;;
17361;SDS011;8798;51.938;4.348;2023-04-06T09:51:55;8.53;;;4.30;;
17361;SDS011;8798;51.938;4.348;2023-04-06T09:54:27;9.97;;;4.33;;
17361;SDS011;8798;51.938;4.348;2023-04-06T09:57:00;6.47;;;3.87;;
17361;SDS011;8798;51.938;4.348;2023-04-06T09:59:36;8.07;;;4.13;;
17361;SDS011;8798;51.938;4.348;2023-04-06T10:02:11;8.53;;;4.53;;
17361;SDS011;8798;51.938;4.348;2023-04-06T10:04:47;8.90;;;4.50;;
17361;SDS011;8798;51.938;4.348;2023-04-06T10:07:21;6.77;;;3.80;;
17361;SDS011;8798;51.938;4.348;2023-04-06T10:09:49;7.10;;;3.90;;
17361;SDS011;8798;51.938;4.348;2023-04-06T10:12:19;5.00;;;3.20;;
17361;SDS011;8798;51.938;4.348;2023-04-06T10:14:48;6.70;;;3.60;;
17361;SDS011;8798;51.938;4.348;2023-04-06T10:17:16;5.97;;;3.63;;
17361;SDS011;8798;51.938;4.348;2023-04-06T10:19:44;6.53;;;3.33;;
17361;SDS011;8798;51.938;4.348;2023-04-06T10:22:26;7.97;;;3.80;;
17361;SDS011;8798;51.938;4.348;2023-04-06T10:24:59;6.97;;;3.23;;
17361;SDS011;8798;51.938;4.348;2023-04-06T10:27:29;5.80;;;3.30;;
17361;SDS011;8798;51.938;4.348;2023-04-06T10:30:01;7.30;;;3.37;;
17361;SDS011;8798;51.938;4.348;2023-04-06T10:32:36;5.20;;;3.27;;
17361;SDS011;8798;51.938;4.348;2023-04-06T10:35:08;5.53;;;3.53;;
17361;SDS011;8798;51.938;4.348;2023-04-06T10:37:48;5.80;;;3.30;;
17361;SDS011;8798;51.938;4.348;2023-04-06T10:40:18;6.07;;;3.60;;
17361;SDS011;8798;51.938;4.348;2023-04-06T10:42:48;7.03;;;3.70;;
17361;SDS011;8798;51.938;4.348;2023-04-06T10:45:19;6.23;;;4.13;;
17361;SDS011;8798;51.938;4.348;2023-04-06T10:47:47;8.27;;;4.40;;
17361;SDS011;8798;51.938;4.348;2023-04-06T10:50:15;7.67;;;3.97;;
17361;SDS011;8798;51.938;4.348;2023-04-06T10:52:44;5.53;;;3.57;;
17361;SDS011;8798;51.938;4.348;2023-04-06T10:55:13;6.37;;;4.10;;
17361;SDS011;8798;51.938;4.348;2023-04-06T10:57:41;6.70;;;3.97;;
17361;SDS011;8798;51.938;4.348;2023-04-06T11:00:11;5.60;;;3.53;;
17361;SDS011;8798;51.938;4.348;2023-04-06T11:02:40;6.23;;;4.13;;
17361;SDS011;8798;51.938;4.348;2023-04-06T11:05:08;5.70;;;3.73;;
17361;SDS011;8798;51.938;4.348;2023-04-06T11:07:39;7.10;;;4.10;;
17361;SDS011;8798;51.938;4.348;2023-04-06T11:10:08;7.37;;;3.77;;
17361;SDS011;8798;51.938;4.348;2023-04-06T11:12:44;7.37;;;4.10;;
17361;SDS011;8798;51.938;4.348;2023-04-06T11:15:13;7.23;;;3.73;;
17361;SDS011;8798;51.938;4.348;2023-04-06T11:17:41;6.37;;;4.10;;
17361;SDS011;8798;51.938;4.348;2023-04-06T11:20:11;5.93;;;3.90;;
17361;SDS011;8798;51.938;4.348;2023-04-06T11:22:47;8.63;;;4.60;;
17361;SDS011;8798;51.938;4.348;2023-04-06T11:25:16;8.70;;;4.30;;
17361;SDS011;8798;51.938;4.348;2023-04-06T11:27:44;6.00;;;4.00;;
17361;SDS011;8798;51.938;4.348;2023-04-06T11:30:14;6.77;;;4.57;;
17361;SDS011;8798;51.938;4.348;2023-04-06T11:32:43;7.53;;;4.53;;
17361;SDS011;8798;51.938;4.348;2023-04-06T11:35:13;8.20;;;4.60;;
17361;SDS011;8798;51.938;4.348;2023-04-06T11:37:48;6.90;;;4.40;;
17361;SDS011;8798;51.938;4.348;2023-04-06T11:40:20;8.07;;;4.80;;
17361;SDS011;8798;51.938;4.348;2023-04-06T11:42:51;6.90;;;4.47;;
17361;SDS011;8798;51.938;4.348;2023-04-06T11:45:21;7.50;;;4.37;;
17361;SDS011;8798;51.938;4.348;2023-04-06T11:47:55;7.27;;;4.80;;
17361;SDS011;8798;51.938;4.348;2023-04-06T11:50:24;7.93;;;4.67;;
17361;SDS011;8798;51.938;4.348;2023-04-06T11:52:58;7.60;;;4.83;;
17361;SDS011;8798;51.938;4.348;2023-04-06T11:55:27;8.07;;;4.60;;
17361;SDS011;8798;51.938;4.348;2023-04-06T11:57:58;8.83;;;4.80;;
17361;SDS011;8798;51.938;4.348;2023-04-06T12:00:28;8.40;;;4.80;;
17361;SDS011;8798;51.938;4.348;2023-04-06T12:03:00;6.90;;;4.40;;
17361;SDS011;8798;51.938;4.348;2023-04-06T12:05:28;6.67;;;4.70;;
17361;SDS011;8798;51.938;4.348;2023-04-06T12:07:56;7.17;;;4.70;;
17361;SDS011;8798;51.938;4.348;2023-04-06T12:10:28;6.93;;;4.50;;
17361;SDS011;8798;51.938;4.348;2023-04-06T12:12:56;7.27;;;4.13;;
17361;SDS011;8798;51.938;4.348;2023-04-06T12:15:24;8.40;;;3.77;;
17361;SDS011;8798;51.938;4.348;2023-04-06T12:17:53;8.83;;;4.70;;
17361;SDS011;8798;51.938;4.348;2023-04-06T12:20:21;64.20;;;9.07;;
17361;SDS011;8798;51.938;4.348;2023-04-06T12:22:52;8.67;;;4.27;;
17361;SDS011;8798;51.938;4.348;2023-04-06T12:25:21;9.33;;;4.23;;
17361;SDS011;8798;51.938;4.348;2023-04-06T12:27:48;5.90;;;4.07;;
17361;SDS011;8798;51.938;4.348;2023-04-06T12:30:16;6.63;;;3.87;;
17361;SDS011;8798;51.938;4.348;2023-04-06T12:32:44;6.03;;;4.13;;
17361;SDS011;8798;51.938;4.348;2023-04-06T12:35:17;5.60;;;3.40;;
17361;SDS011;8798;51.938;4.348;2023-04-06T12:37:45;5.13;;;3.43;;
17361;SDS011;8798;51.938;4.348;2023-04-06T12:40:13;5.00;;;3.23;;
17361;SDS011;8798;51.938;4.348;2023-04-06T12:42:41;6.73;;;3.43;;
17361;SDS011;8798;51.938;4.348;2023-04-06T12:45:09;4.23;;;2.50;;
17361;SDS011;8798;51.938;4.348;2023-04-06T12:47:37;3.97;;;3.40;;
17361;SDS011;8798;51.938;4.348;2023-04-06T12:50:06;5.40;;;3.47;;
17361;SDS011;8798;51.938;4.348;2023-04-06T12:52:35;4.63;;;3.37;;
17361;SDS011;8798;51.938;4.348;2023-04-06T12:55:03;4.13;;;3.00;;
17361;SDS011;8798;51.938;4.348;2023-04-06T12:57:32;5.20;;;3.37;;
17361;SDS011;8798;51.938;4.348;2023-04-06T13:00:00;5.23;;;3.30;;
17361;SDS011;8798;51.938;4.348;2023-04-06T13:02:29;3.70;;;2.50;;
17361;SDS011;8798;51.938;4.348;2023-04-06T13:04:58;5.00;;;3.10;;
17361;SDS011;8798;51.938;4.348;2023-04-06T13:07:25;5.03;;;2.87;;
17361;SDS011;8798;51.938;4.348;2023-04-06T13:09:55;4.33;;;3.03;;
17361;SDS011;8798;51.938;4.348;2023-04-06T13:12:23;6.00;;;3.27;;
17361;SDS011;8798;51.938;4.348;2023-04-06T13:14:52;4.37;;;3.20;;
17361;SDS011;8798;51.938;4.348;2023-04-06T13:17:20;4.67;;;3.30;;
17361;SDS011;8798;51.938;4.348;2023-04-06T13:19:48;4.17;;;2.80;;
17361;SDS011;8798;51.938;4.348;2023-04-06T13:22:16;4.77;;;3.17;;
17361;SDS011;8798;51.938;4.348;2023-04-06T13:24:44;4.93;;;3.57;;
17361;SDS011;8798;51.938;4.348;2023-04-06T13:27:13;5.83;;;3.63;;
17361;SDS011;8798;51.938;4.348;2023-04-06T13:29:41;5.30;;;3.33;;
17361;SDS011;8798;51.938;4.348;2023-04-06T13:32:09;4.27;;;3.20;;
17361;SDS011;8798;51.938;4.348;2023-04-06T13:34:37;4.97;;;3.30;;
17361;SDS011;8798;51.938;4.348;2023-04-06T13:37:06;4.50;;;3.30;;
17361;SDS011;8798;51.938;4.348;2023-04-06T13:39:34;6.33;;;3.57;;
17361;SDS011;8798;51.938;4.348;2023-04-06T13:42:02;5.47;;;3.53;;
17361;SDS011;8798;51.938;4.348;2023-04-06T13:44:32;4.57;;;3.60;;
17361;SDS011;8798;51.938;4.348;2023-04-06T13:47:00;5.33;;;4.00;;
17361;SDS011;8798;51.938;4.348;2023-04-06T13:49:28;5.40;;;3.60;;
17361;SDS011;8798;51.938;4.348;2023-04-06T13:51:56;4.53;;;3.53;;
17361;SDS011;8798;51.938;4.348;2023-04-06T13:54:25;4.77;;;3.43;;
17361;SDS011;8798;51.938;4.348;2023-04-06T13:56:54;4.43;;;3.50;;
17361;SDS011;8798;51.938;4.348;2023-04-06T13:59:23;5.30;;;3.77;;
17361;SDS011;8798;51.938;4.348;2023-04-06T14:01:52;7.03;;;3.93;;
17361;SDS011;8798;51.938;4.348;2023-04-06T14:04:20;5.27;;;3.20;;
17361;SDS011;8798;51.938;4.348;2023-04-06T14:06:48;4.80;;;3.60;;
17361;SDS011;8798;51.938;4.348;2023-04-06T14:09:15;6.97;;;3.67;;
17361;SDS011;8798;51.938;4.348;2023-04-06T14:11:43;5.87;;;3.67;;
17361;SDS011;8798;51.938;4.348;2023-04-06T14:14:11;5.00;;;3.70;;
17361;SDS011;8798;51.938;4.348;2023-04-06T14:16:40;6.70;;;3.53;;
17361;SDS011;8798;51.938;4.348;2023-04-06T14:19:11;5.80;;;3.63;;
17361;SDS011;8798;51.938;4.348;2023-04-06T14:21:41;6.30;;;3.70;;
17361;SDS011;8798;51.938;4.348;2023-04-06T14:24:10;5.07;;;3.70;;
17361;SDS011;8798;51.938;4.348;2023-04-06T14:26:38;5.83;;;3.90;;
17361;SDS011;8798;51.938;4.348;2023-04-06T14:29:07;5.37;;;3.87;;
17361;SDS011;8798;51.938;4.348;2023-04-06T14:31:36;4.77;;;3.77;;
17361;SDS011;8798;51.938;4.348;2023-04-06T14:34:04;6.10;;;3.53;;
17361;SDS011;8798;51.938;4.348;2023-04-06T14:36:33;4.47;;;3.30;;
17361;SDS011;8798;51.938;4.348;2023-04-06T14:39:05;4.03;;;2.93;;
17361;SDS011;8798;51.938;4.348;2023-04-06T14:41:33;4.00;;;2.83;;
17361;SDS011;8798;51.938;4.348;2023-04-06T14:44:02;4.07;;;3.20;;
17361;SDS011;8798;51.938;4.348;2023-04-06T14:46:31;5.20;;;3.23;;
17361;SDS011;8798;51.938;4.348;2023-04-06T14:48:59;4.73;;;2.57;;
17361;SDS011;8798;51.938;4.348;2023-04-06T14:51:27;5.07;;;2.60;;
17361;SDS011;8798;51.938;4.348;2023-04-06T14:53:56;3.67;;;2.80;;
17361;SDS011;8798;51.938;4.348;2023-04-06T14:56:24;3.23;;;2.50;;
17361;SDS011;8798;51.938;4.348;2023-04-06T14:58:52;4.67;;;2.77;;
17361;SDS011;8798;51.938;4.348;2023-04-06T15:01:20;4.30;;;3.23;;